sensor_id;sensor_type;location;lat;lon;timestamp;temperature;humidity
40123;DHT22;25832;45.490;4.912;2024-01-27T00:01:33;9.90;99.90
40123;DHT22;25832;45.490;4.912;2024-01-27T00:03:59;9.90;99.90
40123;DHT22;25832;45.490;4.912;2024-01-27T00:06:25;9.90;99.90
40123;DHT22;25832;45.490;4.912;2024-01-27T00:08:51;9.80;99.90
40123;DHT22;25832;45.490;4.912;2024-01-27T00:11:17;9.90;99.90
40123;DHT22;25832;45.490;4.912;2024-01-27T00:13:43;9.90;99.90
40123;DHT22;25832;45.490;4.912;2024-01-27T00:16:09;9.90;99.90
40123;DHT22;25832;45.490;4.912;2024-01-27T00:18:38;9.90;99.90
40123;DHT22;25832;45.490;4.912;2024-01-27T00:21:05;9.90;99.90
40123;DHT22;25832;45.490;4.912;2024-01-27T00:23:31;9.90;99.90
40123;DHT22;25832;45.490;4.912;2024-01-27T00:25:58;9.90;99.90
40123;DHT22;25832;45.490;4.912;2024-01-27T00:28:23;9.90;99.90
40123;DHT22;25832;45.490;4.912;2024-01-27T00:30:49;9.90;99.90
40123;DHT22;25832;45.490;4.912;2024-01-27T00:33:15;9.90;99.90
40123;DHT22;25832;45.490;4.912;2024-01-27T00:35:41;9.90;99.90
40123;DHT22;25832;45.490;4.912;2024-01-27T00:38:07;9.90;99.90
40123;DHT22;25832;45.490;4.912;2024-01-27T00:40:32;9.80;99.90
40123;DHT22;25832;45.490;4.912;2024-01-27T00:42:58;9.80;99.90
40123;DHT22;25832;45.490;4.912;2024-01-27T00:45:24;9.80;99.90
40123;DHT22;25832;45.490;4.912;2024-01-27T00:47:51;9.80;99.90
40123;DHT22;25832;45.490;4.912;2024-01-27T00:50:17;9.80;99.90
40123;DHT22;25832;45.490;4.912;2024-01-27T00:52:42;9.80;99.90
40123;DHT22;25832;45.490;4.912;2024-01-27T00:55:08;9.80;99.90
40123;DHT22;25832;45.490;4.912;2024-01-27T00:57:36;9.80;99.90
40123;DHT22;25832;45.490;4.912;2024-01-27T01:00:07;9.70;99.90
40123;DHT22;25832;45.490;4.912;2024-01-27T01:02:34;9.80;99.90
40123;DHT22;25832;45.490;4.912;2024-01-27T01:05:00;9.70;99.90
40123;DHT22;25832;45.490;4.912;2024-01-27T01:07:26;9.70;99.90
40123;DHT22;25832;45.490;4.912;2024-01-27T01:09:51;9.70;99.90
40123;DHT22;25832;45.490;4.912;2024-01-27T01:12:17;9.70;99.90
40123;DHT22;25832;45.490;4.912;2024-01-27T01:14:43;9.70;99.90
40123;DHT22;25832;45.490;4.912;2024-01-27T01:17:09;9.60;99.90
40123;DHT22;25832;45.490;4.912;2024-01-27T01:19:36;9.60;99.90
40123;DHT22;25832;45.490;4.912;2024-01-27T01:22:02;9.60;99.90
40123;DHT22;25832;45.490;4.912;2024-01-27T01:24:29;9.60;99.90
40123;DHT22;25832;45.490;4.912;2024-01-27T01:26:54;9.60;99.90
40123;DHT22;25832;45.490;4.912;2024-01-27T01:29:20;9.60;99.90
40123;DHT22;25832;45.490;4.912;2024-01-27T01:31:45;9.50;99.90
40123;DHT22;25832;45.490;4.912;2024-01-27T01:34:11;9.50;99.90
40123;DHT22;25832;45.490;4.912;2024-01-27T01:36:37;9.50;99.90
40123;DHT22;25832;45.490;4.912;2024-01-27T01:39:03;9.50;99.90
40123;DHT22;25832;45.490;4.912;2024-01-27T01:41:29;9.50;99.90
40123;DHT22;25832;45.490;4.912;2024-01-27T01:43:54;9.50;99.90
40123;DHT22;25832;45.490;4.912;2024-01-27T01:46:21;9.60;99.90
40123;DHT22;25832;45.490;4.912;2024-01-27T01:48:49;9.60;99.90
40123;DHT22;25832;45.490;4.912;2024-01-27T01:51:16;9.50;99.90
40123;DHT22;25832;45.490;4.912;2024-01-27T01:53:42;9.50;99.90
40123;DHT22;25832;45.490;4.912;2024-01-27T01:56:08;9.50;99.90
40123;DHT22;25832;45.490;4.912;2024-01-27T01:58:34;9.50;99.90
40123;DHT22;25832;45.490;4.912;2024-01-27T02:01:00;9.50;99.90
40123;DHT22;25832;45.490;4.912;2024-01-27T02:03:26;9.40;99.90
40123;DHT22;25832;45.490;4.912;2024-01-27T02:05:52;9.40;99.90
40123;DHT22;25832;45.490;4.912;2024-01-27T02:08:17;9.40;99.90
40123;DHT22;25832;45.490;4.912;2024-01-27T02:10:43;9.40;99.90
40123;DHT22;25832;45.490;4.912;2024-01-27T02:13:19;9.40;99.90
40123;DHT22;25832;45.490;4.912;2024-01-27T02:15:45;9.40;99.90
40123;DHT22;25832;45.490;4.912;2024-01-27T02:18:11;9.30;99.90
40123;DHT22;25832;45.490;4.912;2024-01-27T02:20:37;9.30;99.90
40123;DHT22;25832;45.490;4.912;2024-01-27T02:23:03;9.30;99.90
40123;DHT22;25832;45.490;4.912;2024-01-27T02:25:30;9.30;99.90
40123;DHT22;25832;45.490;4.912;2024-01-27T02:27:56;9.30;99.90
40123;DHT22;25832;45.490;4.912;2024-01-27T02:30:22;9.20;99.90
40123;DHT22;25832;45.490;4.912;2024-01-27T02:32:47;9.00;99.90
40123;DHT22;25832;45.490;4.912;2024-01-27T02:35:13;8.90;99.90
40123;DHT22;25832;45.490;4.912;2024-01-27T02:37:40;8.80;99.90
40123;DHT22;25832;45.490;4.912;2024-01-27T02:40:06;8.70;99.90
40123;DHT22;25832;45.490;4.912;2024-01-27T02:42:33;8.60;99.90
40123;DHT22;25832;45.490;4.912;2024-01-27T02:44:58;8.60;99.90
40123;DHT22;25832;45.490;4.912;2024-01-27T02:47:24;8.50;99.90
40123;DHT22;25832;45.490;4.912;2024-01-27T02:49:50;8.50;99.90
40123;DHT22;25832;45.490;4.912;2024-01-27T02:52:15;8.50;99.90
40123;DHT22;25832;45.490;4.912;2024-01-27T02:54:41;8.40;99.90
40123;DHT22;25832;45.490;4.912;2024-01-27T02:57:07;8.40;99.90
40123;DHT22;25832;45.490;4.912;2024-01-27T02:59:32;8.40;99.90
40123;DHT22;25832;45.490;4.912;2024-01-27T03:01:58;8.30;99.90
40123;DHT22;25832;45.490;4.912;2024-01-27T03:04:23;8.30;99.90
40123;DHT22;25832;45.490;4.912;2024-01-27T03:06:49;8.30;99.90
40123;DHT22;25832;45.490;4.912;2024-01-27T03:09:15;8.30;99.90
40123;DHT22;25832;45.490;4.912;2024-01-27T03:11:40;8.20;99.90
40123;DHT22;25832;45.490;4.912;2024-01-27T03:14:06;8.20;99.90
40123;DHT22;25832;45.490;4.912;2024-01-27T03:16:32;8.30;99.90
40123;DHT22;25832;45.490;4.912;2024-01-27T03:18:58;8.30;99.90
40123;DHT22;25832;45.490;4.912;2024-01-27T03:21:23;8.20;99.90
40123;DHT22;25832;45.490;4.912;2024-01-27T03:23:49;8.20;99.90
40123;DHT22;25832;45.490;4.912;2024-01-27T03:26:15;8.20;99.90
40123;DHT22;25832;45.490;4.912;2024-01-27T03:28:40;8.20;99.90
40123;DHT22;25832;45.490;4.912;2024-01-27T03:31:06;8.10;99.90
40123;DHT22;25832;45.490;4.912;2024-01-27T03:33:32;8.20;99.90
40123;DHT22;25832;45.490;4.912;2024-01-27T03:35:57;8.20;99.90
40123;DHT22;25832;45.490;4.912;2024-01-27T03:38:23;8.10;99.90
40123;DHT22;25832;45.490;4.912;2024-01-27T03:40:49;8.10;99.90
40123;DHT22;25832;45.490;4.912;2024-01-27T03:43:14;8.10;99.90
40123;DHT22;25832;45.490;4.912;2024-01-27T03:45:40;8.10;99.90
40123;DHT22;25832;45.490;4.912;2024-01-27T03:48:06;8.10;99.90
40123;DHT22;25832;45.490;4.912;2024-01-27T03:50:32;8.00;99.90
40123;DHT22;25832;45.490;4.912;2024-01-27T03:52:57;8.00;99.90
40123;DHT22;25832;45.490;4.912;2024-01-27T03:55:23;8.00;99.90
40123;DHT22;25832;45.490;4.912;2024-01-27T03:57:49;7.90;99.90
40123;DHT22;25832;45.490;4.912;2024-01-27T04:00:14;7.90;99.90
40123;DHT22;25832;45.490;4.912;2024-01-27T04:02:40;7.90;99.90
40123;DHT22;25832;45.490;4.912;2024-01-27T04:05:06;8.00;99.90
40123;DHT22;25832;45.490;4.912;2024-01-27T04:07:32;7.90;99.90
40123;DHT22;25832;45.490;4.912;2024-01-27T04:09:57;8.00;99.90
40123;DHT22;25832;45.490;4.912;2024-01-27T04:12:23;7.90;99.90
40123;DHT22;25832;45.490;4.912;2024-01-27T04:14:48;7.90;99.90
40123;DHT22;25832;45.490;4.912;2024-01-27T04:17:14;7.90;99.90
40123;DHT22;25832;45.490;4.912;2024-01-27T04:19:40;7.80;99.90
40123;DHT22;25832;45.490;4.912;2024-01-27T04:22:05;7.90;99.90
40123;DHT22;25832;45.490;4.912;2024-01-27T04:24:31;7.90;99.90
40123;DHT22;25832;45.490;4.912;2024-01-27T04:26:58;8.00;99.90
40123;DHT22;25832;45.490;4.912;2024-01-27T04:29:24;7.90;99.90
40123;DHT22;25832;45.490;4.912;2024-01-27T04:31:50;7.90;99.90
40123;DHT22;25832;45.490;4.912;2024-01-27T04:34:16;7.80;99.90
40123;DHT22;25832;45.490;4.912;2024-01-27T04:36:42;7.80;99.90
40123;DHT22;25832;45.490;4.912;2024-01-27T04:39:07;7.80;99.90
40123;DHT22;25832;45.490;4.912;2024-01-27T04:41:33;7.80;99.90
40123;DHT22;25832;45.490;4.912;2024-01-27T04:43:58;7.80;99.90
40123;DHT22;25832;45.490;4.912;2024-01-27T04:46:24;7.80;99.90
40123;DHT22;25832;45.490;4.912;2024-01-27T04:48:50;7.80;99.90
40123;DHT22;25832;45.490;4.912;2024-01-27T04:51:16;7.80;99.90
40123;DHT22;25832;45.490;4.912;2024-01-27T04:53:41;7.70;99.90
40123;DHT22;25832;45.490;4.912;2024-01-27T04:56:07;7.70;99.90
40123;DHT22;25832;45.490;4.912;2024-01-27T04:58:34;7.60;99.90
40123;DHT22;25832;45.490;4.912;2024-01-27T05:01:01;7.60;99.90
40123;DHT22;25832;45.490;4.912;2024-01-27T05:03:27;7.50;99.90
40123;DHT22;25832;45.490;4.912;2024-01-27T05:05:52;7.50;99.90
40123;DHT22;25832;45.490;4.912;2024-01-27T05:08:18;7.50;99.90
40123;DHT22;25832;45.490;4.912;2024-01-27T05:10:44;7.40;99.90
40123;DHT22;25832;45.490;4.912;2024-01-27T05:13:10;7.40;99.90
40123;DHT22;25832;45.490;4.912;2024-01-27T05:15:36;7.30;99.90
40123;DHT22;25832;45.490;4.912;2024-01-27T05:18:02;7.30;99.90
40123;DHT22;25832;45.490;4.912;2024-01-27T05:20:27;7.30;99.90
40123;DHT22;25832;45.490;4.912;2024-01-27T05:22:53;7.20;99.90
40123;DHT22;25832;45.490;4.912;2024-01-27T05:25:19;7.20;99.90
40123;DHT22;25832;45.490;4.912;2024-01-27T05:27:44;7.10;99.90
40123;DHT22;25832;45.490;4.912;2024-01-27T05:30:10;7.00;99.90
40123;DHT22;25832;45.490;4.912;2024-01-27T05:32:36;7.00;99.90
40123;DHT22;25832;45.490;4.912;2024-01-27T05:35:02;6.90;99.90
40123;DHT22;25832;45.490;4.912;2024-01-27T05:37:29;6.90;99.90
40123;DHT22;25832;45.490;4.912;2024-01-27T05:39:54;6.90;99.90
40123;DHT22;25832;45.490;4.912;2024-01-27T05:42:21;6.90;99.90
40123;DHT22;25832;45.490;4.912;2024-01-27T05:44:46;6.90;99.90
40123;DHT22;25832;45.490;4.912;2024-01-27T05:47:12;6.80;99.90
40123;DHT22;25832;45.490;4.912;2024-01-27T05:49:38;6.80;99.90
40123;DHT22;25832;45.490;4.912;2024-01-27T05:52:04;6.80;99.90
40123;DHT22;25832;45.490;4.912;2024-01-27T05:54:30;6.70;99.90
40123;DHT22;25832;45.490;4.912;2024-01-27T05:56:55;6.70;99.90
40123;DHT22;25832;45.490;4.912;2024-01-27T05:59:21;6.70;99.90
40123;DHT22;25832;45.490;4.912;2024-01-27T06:01:47;6.70;99.90
40123;DHT22;25832;45.490;4.912;2024-01-27T06:04:13;6.60;99.90
40123;DHT22;25832;45.490;4.912;2024-01-27T06:06:38;6.60;99.90
40123;DHT22;25832;45.490;4.912;2024-01-27T06:09:05;6.60;99.90
40123;DHT22;25832;45.490;4.912;2024-01-27T06:11:30;6.60;99.90
40123;DHT22;25832;45.490;4.912;2024-01-27T06:13:56;6.60;99.90
40123;DHT22;25832;45.490;4.912;2024-01-27T06:16:23;6.50;99.90
40123;DHT22;25832;45.490;4.912;2024-01-27T06:18:49;6.40;99.90
40123;DHT22;25832;45.490;4.912;2024-01-27T06:21:15;6.40;99.90
40123;DHT22;25832;45.490;4.912;2024-01-27T06:23:40;6.40;99.90
40123;DHT22;25832;45.490;4.912;2024-01-27T06:26:09;6.40;99.90
40123;DHT22;25832;45.490;4.912;2024-01-27T06:28:36;6.40;99.90
40123;DHT22;25832;45.490;4.912;2024-01-27T06:31:03;6.30;99.90
40123;DHT22;25832;45.490;4.912;2024-01-27T06:33:29;6.30;99.90
40123;DHT22;25832;45.490;4.912;2024-01-27T06:35:54;6.30;99.90
40123;DHT22;25832;45.490;4.912;2024-01-27T06:38:20;6.30;99.90
40123;DHT22;25832;45.490;4.912;2024-01-27T06:40:45;6.20;99.90
40123;DHT22;25832;45.490;4.912;2024-01-27T06:43:12;6.10;99.90
40123;DHT22;25832;45.490;4.912;2024-01-27T06:45:38;6.10;99.90
40123;DHT22;25832;45.490;4.912;2024-01-27T06:48:05;6.10;99.90
40123;DHT22;25832;45.490;4.912;2024-01-27T06:50:31;6.00;99.90
40123;DHT22;25832;45.490;4.912;2024-01-27T06:52:56;6.00;99.90
40123;DHT22;25832;45.490;4.912;2024-01-27T06:55:22;6.10;99.90
40123;DHT22;25832;45.490;4.912;2024-01-27T06:57:48;6.00;99.90
40123;DHT22;25832;45.490;4.912;2024-01-27T07:00:14;5.90;99.90
40123;DHT22;25832;45.490;4.912;2024-01-27T07:02:40;5.90;99.90
40123;DHT22;25832;45.490;4.912;2024-01-27T07:05:09;5.90;99.90
40123;DHT22;25832;45.490;4.912;2024-01-27T07:07:35;5.80;99.90
40123;DHT22;25832;45.490;4.912;2024-01-27T07:10:01;5.80;99.90
40123;DHT22;25832;45.490;4.912;2024-01-27T07:12:26;5.70;99.90
40123;DHT22;25832;45.490;4.912;2024-01-27T07:14:52;5.80;99.90
40123;DHT22;25832;45.490;4.912;2024-01-27T07:17:18;5.70;99.90
40123;DHT22;25832;45.490;4.912;2024-01-27T07:19:44;5.70;99.90
40123;DHT22;25832;45.490;4.912;2024-01-27T07:22:09;5.70;99.90
40123;DHT22;25832;45.490;4.912;2024-01-27T07:24:35;5.70;99.90
40123;DHT22;25832;45.490;4.912;2024-01-27T07:27:01;5.60;99.90
40123;DHT22;25832;45.490;4.912;2024-01-27T07:29:28;5.50;99.90
40123;DHT22;25832;45.490;4.912;2024-01-27T07:31:53;5.50;99.90
40123;DHT22;25832;45.490;4.912;2024-01-27T07:34:19;5.50;99.90
40123;DHT22;25832;45.490;4.912;2024-01-27T07:36:45;5.40;99.90
40123;DHT22;25832;45.490;4.912;2024-01-27T07:39:11;5.40;99.90
40123;DHT22;25832;45.490;4.912;2024-01-27T07:41:37;5.30;99.90
40123;DHT22;25832;45.490;4.912;2024-01-27T07:44:14;5.20;99.90
40123;DHT22;25832;45.490;4.912;2024-01-27T07:46:40;5.30;99.90
40123;DHT22;25832;45.490;4.912;2024-01-27T07:49:06;5.20;99.90
40123;DHT22;25832;45.490;4.912;2024-01-27T07:51:33;5.20;99.90
40123;DHT22;25832;45.490;4.912;2024-01-27T07:53:59;5.20;99.90
40123;DHT22;25832;45.490;4.912;2024-01-27T07:56:25;5.20;99.90
40123;DHT22;25832;45.490;4.912;2024-01-27T07:58:51;5.20;99.90
40123;DHT22;25832;45.490;4.912;2024-01-27T08:01:18;5.20;99.90
40123;DHT22;25832;45.490;4.912;2024-01-27T08:03:44;5.20;99.90
40123;DHT22;25832;45.490;4.912;2024-01-27T08:06:19;5.30;99.90
40123;DHT22;25832;45.490;4.912;2024-01-27T08:08:46;5.30;99.90
40123;DHT22;25832;45.490;4.912;2024-01-27T08:11:12;5.40;99.90
40123;DHT22;25832;45.490;4.912;2024-01-27T08:13:38;5.40;99.90
40123;DHT22;25832;45.490;4.912;2024-01-27T08:16:04;5.40;99.90
40123;DHT22;25832;45.490;4.912;2024-01-27T08:18:31;5.40;99.90
40123;DHT22;25832;45.490;4.912;2024-01-27T08:20:56;5.50;99.90
40123;DHT22;25832;45.490;4.912;2024-01-27T08:23:23;5.50;99.90
40123;DHT22;25832;45.490;4.912;2024-01-27T08:25:48;5.50;99.90
40123;DHT22;25832;45.490;4.912;2024-01-27T08:28:18;5.50;99.90
40123;DHT22;25832;45.490;4.912;2024-01-27T08:30:43;5.60;99.90
40123;DHT22;25832;45.490;4.912;2024-01-27T08:33:09;5.60;99.90
40123;DHT22;25832;45.490;4.912;2024-01-27T08:35:34;5.60;99.90
40123;DHT22;25832;45.490;4.912;2024-01-27T08:38:00;5.70;99.90
40123;DHT22;25832;45.490;4.912;2024-01-27T08:40:26;5.70;99.90
40123;DHT22;25832;45.490;4.912;2024-01-27T08:42:51;5.70;99.90
40123;DHT22;25832;45.490;4.912;2024-01-27T08:45:17;5.60;99.90
40123;DHT22;25832;45.490;4.912;2024-01-27T08:47:42;5.50;99.90
40123;DHT22;25832;45.490;4.912;2024-01-27T08:50:09;5.50;99.90
40123;DHT22;25832;45.490;4.912;2024-01-27T08:52:36;5.50;99.90
40123;DHT22;25832;45.490;4.912;2024-01-27T08:55:02;5.50;99.90
40123;DHT22;25832;45.490;4.912;2024-01-27T08:57:27;5.50;99.90
40123;DHT22;25832;45.490;4.912;2024-01-27T08:59:53;5.50;99.90
40123;DHT22;25832;45.490;4.912;2024-01-27T09:02:19;5.60;99.90
40123;DHT22;25832;45.490;4.912;2024-01-27T09:04:45;5.60;99.90
40123;DHT22;25832;45.490;4.912;2024-01-27T09:07:11;5.50;99.90
40123;DHT22;25832;45.490;4.912;2024-01-27T09:09:37;5.50;99.90
40123;DHT22;25832;45.490;4.912;2024-01-27T09:12:04;5.50;99.90
40123;DHT22;25832;45.490;4.912;2024-01-27T09:14:30;5.50;99.90
40123;DHT22;25832;45.490;4.912;2024-01-27T09:16:56;5.50;99.90
40123;DHT22;25832;45.490;4.912;2024-01-27T09:19:22;5.40;99.90
40123;DHT22;25832;45.490;4.912;2024-01-27T09:21:47;5.40;99.90
40123;DHT22;25832;45.490;4.912;2024-01-27T09:24:14;5.40;99.90
40123;DHT22;25832;45.490;4.912;2024-01-27T09:26:39;5.40;99.90
40123;DHT22;25832;45.490;4.912;2024-01-27T09:29:05;5.40;99.90
40123;DHT22;25832;45.490;4.912;2024-01-27T09:31:30;5.30;99.90
40123;DHT22;25832;45.490;4.912;2024-01-27T09:33:56;5.30;99.90
40123;DHT22;25832;45.490;4.912;2024-01-27T09:36:22;5.30;99.90
40123;DHT22;25832;45.490;4.912;2024-01-27T09:38:48;5.40;99.90
40123;DHT22;25832;45.490;4.912;2024-01-27T09:41:14;5.40;99.90
40123;DHT22;25832;45.490;4.912;2024-01-27T09:43:44;5.50;99.90
40123;DHT22;25832;45.490;4.912;2024-01-27T09:46:16;5.60;99.90
40123;DHT22;25832;45.490;4.912;2024-01-27T09:48:43;5.70;99.90
40123;DHT22;25832;45.490;4.912;2024-01-27T09:51:09;5.80;99.90
40123;DHT22;25832;45.490;4.912;2024-01-27T09:53:36;5.80;99.90
40123;DHT22;25832;45.490;4.912;2024-01-27T09:56:04;5.90;99.90
40123;DHT22;25832;45.490;4.912;2024-01-27T09:58:30;6.10;99.90
40123;DHT22;25832;45.490;4.912;2024-01-27T10:00:57;6.10;99.90
40123;DHT22;25832;45.490;4.912;2024-01-27T10:03:25;6.10;99.90
40123;DHT22;25832;45.490;4.912;2024-01-27T10:05:55;6.20;99.90
40123;DHT22;25832;45.490;4.912;2024-01-27T10:08:22;6.50;99.90
40123;DHT22;25832;45.490;4.912;2024-01-27T10:10:57;6.50;99.90
40123;DHT22;25832;45.490;4.912;2024-01-27T10:13:23;6.50;99.90
40123;DHT22;25832;45.490;4.912;2024-01-27T10:16:05;6.40;99.90
40123;DHT22;25832;45.490;4.912;2024-01-27T10:18:31;6.40;99.90
40123;DHT22;25832;45.490;4.912;2024-01-27T10:20:58;6.50;99.90
40123;DHT22;25832;45.490;4.912;2024-01-27T10:23:23;6.50;99.90
40123;DHT22;25832;45.490;4.912;2024-01-27T10:25:50;6.60;99.90
40123;DHT22;25832;45.490;4.912;2024-01-27T10:28:16;6.70;99.90
40123;DHT22;25832;45.490;4.912;2024-01-27T10:30:43;6.80;99.90
40123;DHT22;25832;45.490;4.912;2024-01-27T10:33:09;6.90;99.90
40123;DHT22;25832;45.490;4.912;2024-01-27T10:35:43;7.00;99.90
40123;DHT22;25832;45.490;4.912;2024-01-27T10:38:09;7.00;99.90
40123;DHT22;25832;45.490;4.912;2024-01-27T10:40:37;7.00;99.90
40123;DHT22;25832;45.490;4.912;2024-01-27T10:43:05;7.00;99.90
40123;DHT22;25832;45.490;4.912;2024-01-27T10:45:41;7.00;99.90
40123;DHT22;25832;45.490;4.912;2024-01-27T10:48:10;7.00;99.90
40123;DHT22;25832;45.490;4.912;2024-01-27T10:50:40;7.10;99.90
40123;DHT22;25832;45.490;4.912;2024-01-27T10:53:09;7.20;99.90
40123;DHT22;25832;45.490;4.912;2024-01-27T10:55:42;7.20;99.90
40123;DHT22;25832;45.490;4.912;2024-01-27T10:58:10;7.30;99.90
40123;DHT22;25832;45.490;4.912;2024-01-27T11:00:38;7.40;99.90
40123;DHT22;25832;45.490;4.912;2024-01-27T11:03:06;7.50;99.90
40123;DHT22;25832;45.490;4.912;2024-01-27T11:05:35;7.60;99.90
40123;DHT22;25832;45.490;4.912;2024-01-27T11:08:02;7.50;99.90
40123;DHT22;25832;45.490;4.912;2024-01-27T11:10:30;7.60;99.90
40123;DHT22;25832;45.490;4.912;2024-01-27T11:13:02;7.70;99.90
40123;DHT22;25832;45.490;4.912;2024-01-27T11:15:29;7.60;99.90
40123;DHT22;25832;45.490;4.912;2024-01-27T11:17:57;7.60;99.90
40123;DHT22;25832;45.490;4.912;2024-01-27T11:20:25;7.60;99.90
40123;DHT22;25832;45.490;4.912;2024-01-27T11:22:50;7.60;99.90
40123;DHT22;25832;45.490;4.912;2024-01-27T11:25:18;7.80;99.90
40123;DHT22;25832;45.490;4.912;2024-01-27T11:27:45;7.80;99.90
40123;DHT22;25832;45.490;4.912;2024-01-27T11:30:29;8.00;99.90
40123;DHT22;25832;45.490;4.912;2024-01-27T11:33:01;8.10;99.90
40123;DHT22;25832;45.490;4.912;2024-01-27T11:35:27;8.10;99.90
40123;DHT22;25832;45.490;4.912;2024-01-27T11:37:54;8.20;99.90
40123;DHT22;25832;45.490;4.912;2024-01-27T11:40:19;8.20;99.90
40123;DHT22;25832;45.490;4.912;2024-01-27T11:42:59;8.20;99.90
40123;DHT22;25832;45.490;4.912;2024-01-27T11:45:26;8.20;99.90
40123;DHT22;25832;45.490;4.912;2024-01-27T11:47:53;8.20;99.90
40123;DHT22;25832;45.490;4.912;2024-01-27T11:50:19;8.20;99.90
40123;DHT22;25832;45.490;4.912;2024-01-27T11:52:46;8.30;99.90
40123;DHT22;25832;45.490;4.912;2024-01-27T11:55:12;8.40;99.90
40123;DHT22;25832;45.490;4.912;2024-01-27T11:57:38;8.50;99.90
40123;DHT22;25832;45.490;4.912;2024-01-27T12:00:04;8.60;99.90
40123;DHT22;25832;45.490;4.912;2024-01-27T12:02:30;8.50;99.90
40123;DHT22;25832;45.490;4.912;2024-01-27T12:04:56;8.40;99.90
40123;DHT22;25832;45.490;4.912;2024-01-27T12:07:22;8.40;99.90
40123;DHT22;25832;45.490;4.912;2024-01-27T12:09:51;8.40;99.90
40123;DHT22;25832;45.490;4.912;2024-01-27T12:12:17;8.50;99.90
40123;DHT22;25832;45.490;4.912;2024-01-27T12:14:50;8.40;99.90
40123;DHT22;25832;45.490;4.912;2024-01-27T12:17:16;8.40;99.90
40123;DHT22;25832;45.490;4.912;2024-01-27T12:19:50;8.40;99.90
40123;DHT22;25832;45.490;4.912;2024-01-27T12:22:29;8.50;99.90
40123;DHT22;25832;45.490;4.912;2024-01-27T12:24:56;8.50;99.90
40123;DHT22;25832;45.490;4.912;2024-01-27T12:27:22;8.60;99.90
40123;DHT22;25832;45.490;4.912;2024-01-27T12:29:49;8.70;99.90
40123;DHT22;25832;45.490;4.912;2024-01-27T12:32:18;8.70;99.90
40123;DHT22;25832;45.490;4.912;2024-01-27T12:34:44;8.80;99.90
40123;DHT22;25832;45.490;4.912;2024-01-27T12:37:12;8.90;99.90
40123;DHT22;25832;45.490;4.912;2024-01-27T12:39:44;8.90;99.90
40123;DHT22;25832;45.490;4.912;2024-01-27T12:42:16;8.90;99.90
40123;DHT22;25832;45.490;4.912;2024-01-27T12:44:42;8.90;99.90
40123;DHT22;25832;45.490;4.912;2024-01-27T12:47:09;8.90;99.90
40123;DHT22;25832;45.490;4.912;2024-01-27T12:49:35;8.90;99.90
40123;DHT22;25832;45.490;4.912;2024-01-27T12:52:01;8.90;99.90
40123;DHT22;25832;45.490;4.912;2024-01-27T12:54:27;9.00;99.90
40123;DHT22;25832;45.490;4.912;2024-01-27T12:56:53;9.00;99.90
40123;DHT22;25832;45.490;4.912;2024-01-27T12:59:18;9.10;99.90
40123;DHT22;25832;45.490;4.912;2024-01-27T13:01:44;9.20;99.90
40123;DHT22;25832;45.490;4.912;2024-01-27T13:04:10;9.40;99.90
40123;DHT22;25832;45.490;4.912;2024-01-27T13:06:36;9.50;99.90
40123;DHT22;25832;45.490;4.912;2024-01-27T13:09:02;9.60;99.90
40123;DHT22;25832;45.490;4.912;2024-01-27T13:11:28;9.60;99.90
40123;DHT22;25832;45.490;4.912;2024-01-27T13:13:54;9.60;99.90
40123;DHT22;25832;45.490;4.912;2024-01-27T13:16:19;9.60;99.90
40123;DHT22;25832;45.490;4.912;2024-01-27T13:18:45;9.70;99.90
40123;DHT22;25832;45.490;4.912;2024-01-27T13:21:11;9.60;99.90
40123;DHT22;25832;45.490;4.912;2024-01-27T13:23:37;9.70;99.90
40123;DHT22;25832;45.490;4.912;2024-01-27T13:26:03;9.70;99.90
40123;DHT22;25832;45.490;4.912;2024-01-27T13:28:29;9.80;99.90
40123;DHT22;25832;45.490;4.912;2024-01-27T13:30:55;9.70;99.90
40123;DHT22;25832;45.490;4.912;2024-01-27T13:33:21;9.80;99.90
40123;DHT22;25832;45.490;4.912;2024-01-27T13:35:46;9.80;99.90
40123;DHT22;25832;45.490;4.912;2024-01-27T13:38:16;9.90;99.90
40123;DHT22;25832;45.490;4.912;2024-01-27T13:40:51;9.90;99.90
40123;DHT22;25832;45.490;4.912;2024-01-27T13:43:17;9.80;99.90
40123;DHT22;25832;45.490;4.912;2024-01-27T13:45:42;9.70;99.90
40123;DHT22;25832;45.490;4.912;2024-01-27T13:48:09;9.80;99.90
40123;DHT22;25832;45.490;4.912;2024-01-27T13:50:34;9.90;99.90
40123;DHT22;25832;45.490;4.912;2024-01-27T13:53:00;9.90;99.90
40123;DHT22;25832;45.490;4.912;2024-01-27T13:55:26;10.00;99.90
40123;DHT22;25832;45.490;4.912;2024-01-27T13:57:52;10.00;99.90
40123;DHT22;25832;45.490;4.912;2024-01-27T14:00:18;10.00;99.90
40123;DHT22;25832;45.490;4.912;2024-01-27T14:02:44;10.10;99.90
40123;DHT22;25832;45.490;4.912;2024-01-27T14:05:10;10.20;99.90
40123;DHT22;25832;45.490;4.912;2024-01-27T14:07:35;10.20;99.90
40123;DHT22;25832;45.490;4.912;2024-01-27T14:10:01;10.30;99.90
40123;DHT22;25832;45.490;4.912;2024-01-27T14:12:27;10.30;99.90
40123;DHT22;25832;45.490;4.912;2024-01-27T14:15:01;10.30;99.90
40123;DHT22;25832;45.490;4.912;2024-01-27T14:17:27;10.30;99.90
40123;DHT22;25832;45.490;4.912;2024-01-27T14:19:52;10.20;99.90
40123;DHT22;25832;45.490;4.912;2024-01-27T14:22:18;10.10;99.90
40123;DHT22;25832;45.490;4.912;2024-01-27T14:24:43;10.20;99.90
40123;DHT22;25832;45.490;4.912;2024-01-27T14:27:10;10.10;99.90
40123;DHT22;25832;45.490;4.912;2024-01-27T14:29:35;10.10;99.90
40123;DHT22;25832;45.490;4.912;2024-01-27T14:32:02;10.10;99.90
40123;DHT22;25832;45.490;4.912;2024-01-27T14:34:28;10.10;99.90
40123;DHT22;25832;45.490;4.912;2024-01-27T14:36:54;10.00;99.90
40123;DHT22;25832;45.490;4.912;2024-01-27T14:39:20;10.00;99.90
40123;DHT22;25832;45.490;4.912;2024-01-27T14:41:46;9.90;99.90
40123;DHT22;25832;45.490;4.912;2024-01-27T14:44:11;10.00;99.90
40123;DHT22;25832;45.490;4.912;2024-01-27T14:46:37;10.00;99.90
40123;DHT22;25832;45.490;4.912;2024-01-27T14:49:06;10.00;99.90
40123;DHT22;25832;45.490;4.912;2024-01-27T14:51:34;10.00;99.90
40123;DHT22;25832;45.490;4.912;2024-01-27T14:54:00;10.10;99.90
40123;DHT22;25832;45.490;4.912;2024-01-27T14:56:30;10.20;99.90
40123;DHT22;25832;45.490;4.912;2024-01-27T14:58:56;10.20;99.90
40123;DHT22;25832;45.490;4.912;2024-01-27T15:01:22;10.10;99.90
40123;DHT22;25832;45.490;4.912;2024-01-27T15:03:48;10.10;99.90
40123;DHT22;25832;45.490;4.912;2024-01-27T15:06:14;10.10;99.90
40123;DHT22;25832;45.490;4.912;2024-01-27T15:08:40;10.10;99.90
40123;DHT22;25832;45.490;4.912;2024-01-27T15:11:06;10.10;99.90
40123;DHT22;25832;45.490;4.912;2024-01-27T15:13:32;10.20;99.90
40123;DHT22;25832;45.490;4.912;2024-01-27T15:15:58;10.10;99.90
40123;DHT22;25832;45.490;4.912;2024-01-27T15:18:24;10.20;99.90
40123;DHT22;25832;45.490;4.912;2024-01-27T15:20:49;10.10;99.90
40123;DHT22;25832;45.490;4.912;2024-01-27T15:23:15;10.10;99.90
40123;DHT22;25832;45.490;4.912;2024-01-27T15:25:41;10.00;99.90
40123;DHT22;25832;45.490;4.912;2024-01-27T15:28:08;10.00;99.90
40123;DHT22;25832;45.490;4.912;2024-01-27T15:30:33;9.90;99.90
40123;DHT22;25832;45.490;4.912;2024-01-27T15:32:59;9.70;99.90
40123;DHT22;25832;45.490;4.912;2024-01-27T15:35:25;9.60;99.90
40123;DHT22;25832;45.490;4.912;2024-01-27T15:37:50;9.60;99.90
40123;DHT22;25832;45.490;4.912;2024-01-27T15:40:16;9.60;99.90